createdAt,value
2023-09-18T00:01:25.635Z,19.12
2023-09-18T00:03:53.749Z,19.12
2023-09-18T00:06:25.056Z,19.21
2023-09-18T00:08:54.651Z,19.21
2023-09-18T00:11:22.891Z,19.15
2023-09-18T00:13:50.975Z,19.17
2023-09-18T00:16:19.285Z,19.11
2023-09-18T00:18:47.344Z,19.04
2023-09-18T00:21:16.122Z,19.04
2023-09-18T00:23:44.158Z,19.00
2023-09-18T00:26:12.388Z,18.99
2023-09-18T00:28:43.192Z,18.99
2023-09-18T00:31:11.508Z,19.06
2023-09-18T00:33:39.989Z,19.08
2023-09-18T00:36:08.069Z,19.21
2023-09-18T00:38:36.162Z,19.38
2023-09-18T00:41:04.511Z,19.48
2023-09-18T00:43:33.158Z,19.55
2023-09-18T00:46:01.710Z,19.59
2023-09-18T00:48:31.277Z,19.58
2023-09-18T00:50:59.597Z,19.61
2023-09-18T00:53:29.604Z,19.56
2023-09-18T00:56:02.318Z,19.56
2023-09-18T00:58:31.024Z,19.49
2023-09-18T01:01:00.413Z,19.45
2023-09-18T01:03:28.946Z,19.44
2023-09-18T01:05:58.330Z,19.41
2023-09-18T01:08:27.279Z,19.32
2023-09-18T01:11:32.924Z,19.36
2023-09-18T01:14:27.869Z,19.41
2023-09-18T01:17:03.533Z,19.38
2023-09-18T01:19:47.995Z,19.35
2023-09-18T01:22:21.143Z,19.32
2023-09-18T01:24:50.256Z,19.35
2023-09-18T01:27:20.199Z,19.30
2023-09-18T01:29:50.743Z,19.25
2023-09-18T01:32:20.001Z,19.18
2023-09-18T01:34:57.674Z,19.14
2023-09-18T01:37:32.572Z,19.15
2023-09-18T01:40:08.054Z,19.22
2023-09-18T01:42:37.347Z,19.32
2023-09-18T01:45:07.331Z,19.38
2023-09-18T01:47:36.906Z,19.41
2023-09-18T01:50:07.568Z,19.48
2023-09-18T01:52:38.554Z,19.49
2023-09-18T01:55:09.147Z,19.51
2023-09-18T01:57:38.090Z,19.49
2023-09-18T02:00:10.828Z,19.48
2023-09-18T02:02:47.881Z,19.41
2023-09-18T02:05:26.663Z,19.35
2023-09-18T02:07:54.796Z,19.30
2023-09-18T02:10:22.889Z,19.22
2023-09-18T02:12:51.521Z,19.18
2023-09-18T02:15:19.572Z,19.20
2023-09-18T02:17:47.633Z,19.21
2023-09-18T02:20:16.004Z,19.25
2023-09-18T02:22:48.409Z,19.25
2023-09-18T02:25:16.714Z,19.27
2023-09-18T02:27:44.735Z,19.36
2023-09-18T02:30:14.823Z,19.45
2023-09-18T02:32:43.622Z,19.44
2023-09-18T02:35:11.876Z,19.39
2023-09-18T02:37:40.001Z,19.32
2023-09-18T02:40:11.598Z,19.28
2023-09-18T02:42:39.716Z,19.25
2023-09-18T02:45:09.850Z,19.22
2023-09-18T02:47:43.060Z,19.18
2023-09-18T02:50:12.855Z,19.12
2023-09-18T02:52:41.566Z,19.07
2023-09-18T02:55:11.494Z,18.99
2023-09-18T02:57:39.487Z,18.91
2023-09-18T03:00:09.109Z,18.83
2023-09-18T03:02:37.320Z,18.79
2023-09-18T03:05:06.630Z,18.73
2023-09-18T03:07:35.543Z,18.73
2023-09-18T03:10:04.117Z,18.70
2023-09-18T03:12:33.204Z,18.74
2023-09-18T03:15:01.766Z,18.86
2023-09-18T03:17:30.572Z,18.91
2023-09-18T03:19:58.724Z,19.01
2023-09-18T03:22:28.108Z,19.08
2023-09-18T03:24:56.465Z,19.15
2023-09-18T03:27:30.175Z,19.30
2023-09-18T03:30:00.275Z,19.41
2023-09-18T03:32:28.720Z,19.49
2023-09-18T03:34:56.802Z,19.52
2023-09-18T03:37:24.850Z,19.54
2023-09-18T03:39:53.648Z,19.55
2023-09-18T03:42:22.561Z,19.55
2023-09-18T03:44:50.530Z,19.54
2023-09-18T03:47:18.587Z,19.55
2023-09-18T03:49:46.856Z,19.54
2023-09-18T03:52:14.870Z,19.55
2023-09-18T03:54:43.130Z,19.58
2023-09-18T03:57:11.250Z,19.61
2023-09-18T03:59:39.957Z,19.58
2023-09-18T04:02:08.066Z,19.59
2023-09-18T04:04:36.158Z,19.63
2023-09-18T04:07:09.849Z,19.67
2023-09-18T04:09:39.560Z,19.70
2023-09-18T04:12:08.258Z,19.80
2023-09-18T04:14:37.514Z,19.85
2023-09-18T04:17:06.106Z,19.87
2023-09-18T04:19:34.234Z,19.93
2023-09-18T04:22:03.092Z,20.00
2023-09-18T04:24:32.881Z,20.00
2023-09-18T04:27:01.559Z,20.06
2023-09-18T04:29:31.404Z,20.10
2023-09-18T04:32:01.584Z,20.17
2023-09-18T04:34:31.693Z,20.21
2023-09-18T04:37:00.796Z,20.23
2023-09-18T04:39:31.419Z,20.27
2023-09-18T04:42:00.715Z,20.31
2023-09-18T04:44:30.000Z,20.41
2023-09-18T04:47:01.451Z,20.42
2023-09-18T04:49:29.858Z,20.62
2023-09-18T04:51:59.135Z,20.67
2023-09-18T04:54:29.776Z,20.79
2023-09-18T04:56:58.793Z,20.82
2023-09-18T04:59:28.218Z,20.80
2023-09-18T05:01:59.532Z,20.78
2023-09-18T05:04:27.615Z,20.78
2023-09-18T05:06:55.688Z,20.79
2023-09-18T05:09:23.749Z,20.83
2023-09-18T05:11:52.249Z,20.85
2023-09-18T05:14:21.213Z,20.86
2023-09-18T05:16:49.313Z,20.88
2023-09-18T05:19:17.332Z,20.90
2023-09-18T05:21:45.495Z,20.92
2023-09-18T05:24:13.582Z,20.90
2023-09-18T05:26:41.638Z,20.86
2023-09-18T05:29:11.379Z,20.83
2023-09-18T05:31:39.583Z,20.80
2023-09-18T05:34:07.627Z,20.75
2023-09-18T05:36:35.683Z,20.71
2023-09-18T05:39:04.757Z,20.64
2023-09-18T05:41:33.463Z,20.56
2023-09-18T05:44:04.231Z,20.59
2023-09-18T05:46:33.010Z,20.55
2023-09-18T05:49:02.178Z,20.51
2023-09-18T05:51:32.827Z,20.53
2023-09-18T05:54:01.403Z,20.58
2023-09-18T05:56:29.605Z,20.67
2023-09-18T05:58:58.465Z,20.65
2023-09-18T06:01:26.835Z,20.62
2023-09-18T06:03:55.704Z,20.62
2023-09-18T06:06:23.938Z,20.71
2023-09-18T06:08:52.406Z,20.72
2023-09-18T06:11:21.268Z,20.71
2023-09-18T06:13:49.531Z,20.75
2023-09-18T06:16:17.802Z,20.76
2023-09-18T06:18:45.884Z,20.72
2023-09-18T06:21:14.504Z,20.78
2023-09-18T06:23:42.561Z,20.79
2023-09-18T06:26:10.952Z,20.78
2023-09-18T06:28:40.100Z,20.80
2023-09-18T06:31:08.265Z,20.80
2023-09-18T06:33:36.297Z,20.83
2023-09-18T06:36:04.843Z,20.80
2023-09-18T06:38:33.042Z,20.83
2023-09-18T06:41:01.724Z,20.93
2023-09-18T06:43:29.833Z,20.92
2023-09-18T06:45:59.302Z,20.93
2023-09-18T06:48:27.430Z,20.93
2023-09-18T06:50:55.854Z,20.96
2023-09-18T06:53:23.984Z,21.02
2023-09-18T06:55:52.166Z,21.07
2023-09-18T06:58:20.196Z,21.10
2023-09-18T07:00:56.209Z,21.14
2023-09-18T07:03:27.305Z,21.09
2023-09-18T07:05:59.162Z,21.14
2023-09-18T07:08:28.374Z,21.26
2023-09-18T07:10:57.249Z,21.27
2023-09-18T07:13:25.688Z,21.40
2023-09-18T07:16:03.033Z,21.50
2023-09-18T07:18:34.594Z,21.55
2023-09-18T07:21:04.156Z,21.64
2023-09-18T07:23:32.743Z,21.69
2023-09-18T07:26:01.217Z,21.75
2023-09-18T07:28:29.859Z,21.72
2023-09-18T07:30:58.757Z,21.74
2023-09-18T07:33:28.399Z,21.81
2023-09-18T07:35:57.108Z,21.77
2023-09-18T07:38:26.670Z,21.71
2023-09-18T07:40:57.812Z,21.69
2023-09-18T07:43:27.696Z,21.83
2023-09-18T07:45:56.648Z,21.93
2023-09-18T07:48:25.202Z,21.91
2023-09-18T07:50:53.682Z,21.88
2023-09-18T07:53:22.304Z,21.81
2023-09-18T07:56:00.838Z,21.81
2023-09-18T07:58:29.924Z,21.81
2023-09-18T08:00:59.602Z,21.81
2023-09-18T08:03:31.480Z,21.83
2023-09-18T08:06:00.334Z,21.83
2023-09-18T08:08:30.490Z,21.82
2023-09-18T08:11:02.515Z,21.85
2023-09-18T08:13:36.231Z,21.96
2023-09-18T08:16:10.163Z,21.93
2023-09-18T08:18:42.833Z,21.92
2023-09-18T08:21:12.047Z,21.92
2023-09-18T08:23:40.516Z,21.98
2023-09-18T08:26:09.158Z,22.09
2023-09-18T08:28:40.503Z,22.08
2023-09-18T08:31:08.998Z,22.19
2023-09-18T08:33:38.150Z,22.03
2023-09-18T08:36:06.626Z,22.00
2023-09-18T08:38:34.781Z,21.95
2023-09-18T08:41:04.706Z,22.03
2023-09-18T08:43:35.341Z,22.17
2023-09-18T08:46:04.875Z,22.58
2023-09-18T08:48:38.026Z,22.63
2023-09-18T08:51:09.004Z,22.63
2023-09-18T08:53:38.636Z,22.54
2023-09-18T08:56:10.451Z,22.58
2023-09-18T08:58:43.837Z,22.50
2023-09-18T09:01:13.683Z,22.47
2023-09-18T09:03:46.937Z,22.57
2023-09-18T09:06:21.834Z,22.47
2023-09-18T09:09:03.717Z,22.44
2023-09-18T09:11:51.753Z,22.41
2023-09-18T09:14:31.165Z,22.44
2023-09-18T09:17:13.658Z,22.46
2023-09-18T09:19:48.007Z,22.54
2023-09-18T09:22:23.971Z,22.68
2023-09-18T09:24:52.475Z,22.84
2023-09-18T09:27:20.732Z,23.13
2023-09-18T09:30:02.744Z,23.16
2023-09-18T09:32:35.495Z,23.09
2023-09-18T09:35:08.282Z,22.92
2023-09-18T09:37:37.147Z,22.77
2023-09-18T09:40:10.904Z,23.01
2023-09-18T09:42:43.260Z,23.23
2023-09-18T09:45:17.916Z,23.19
2023-09-18T09:47:46.913Z,23.06
2023-09-18T09:50:20.226Z,22.85
2023-09-18T09:52:53.222Z,22.96
2023-09-18T09:55:35.922Z,22.75
2023-09-18T09:58:09.121Z,22.68
2023-09-18T10:00:53.580Z,22.79
2023-09-18T10:03:23.081Z,22.84
2023-09-18T10:05:56.450Z,23.09
2023-09-18T10:08:32.347Z,23.26
2023-09-18T10:11:13.692Z,23.30
2023-09-18T10:13:57.100Z,23.29
2023-09-18T10:16:29.072Z,23.33
2023-09-18T10:19:42.063Z,23.63
2023-09-18T10:22:41.976Z,23.47
2023-09-18T10:25:24.082Z,23.18
2023-09-18T10:28:03.257Z,23.23
2023-09-18T10:30:38.777Z,23.30
2023-09-18T10:33:09.337Z,23.47
2023-09-18T10:35:39.482Z,23.40
2023-09-18T10:38:09.474Z,23.59
2023-09-18T10:40:44.839Z,23.46
2023-09-18T10:43:19.149Z,23.45
2023-09-18T10:45:51.614Z,23.56
2023-09-18T10:48:24.424Z,23.49
2023-09-18T10:50:53.705Z,23.47
2023-09-18T10:53:23.216Z,23.46
2023-09-18T10:55:53.015Z,23.45
2023-09-18T10:58:27.233Z,23.42
2023-09-18T11:01:00.993Z,23.30
2023-09-18T11:03:30.033Z,23.29
2023-09-18T11:06:29.179Z,23.26
2023-09-18T11:09:10.606Z,23.18
2023-09-18T11:11:38.720Z,23.16
2023-09-18T11:14:13.937Z,23.16
2023-09-18T11:16:42.365Z,23.34
2023-09-18T11:19:21.084Z,23.42
2023-09-18T11:21:49.401Z,23.51
2023-09-18T11:24:24.462Z,23.43
2023-09-18T11:26:54.210Z,23.56
2023-09-18T11:29:30.074Z,23.74
2023-09-18T11:32:05.769Z,23.74
2023-09-18T11:34:36.352Z,24.11
2023-09-18T11:37:24.117Z,24.39
2023-09-18T11:39:52.314Z,24.33
2023-09-18T11:42:30.509Z,24.22
2023-09-18T11:45:00.115Z,24.14
2023-09-18T11:47:30.536Z,24.02
2023-09-18T11:50:03.835Z,24.26
2023-09-18T11:52:33.947Z,24.43
2023-09-18T11:55:05.006Z,24.49
2023-09-18T11:57:38.750Z,24.73
2023-09-18T12:00:23.714Z,24.62
2023-09-18T12:02:51.856Z,24.49
2023-09-18T12:05:20.515Z,24.79
2023-09-18T12:07:51.574Z,25.04
2023-09-18T12:10:22.807Z,25.01
2023-09-18T12:12:52.420Z,24.84
2023-09-18T12:15:25.307Z,24.90
2023-09-18T12:17:58.075Z,24.94
2023-09-18T12:20:26.408Z,25.07
2023-09-18T12:22:56.374Z,25.21
2023-09-18T12:25:27.887Z,25.25
2023-09-18T12:27:59.390Z,25.07
2023-09-18T12:30:28.372Z,25.24
2023-09-18T12:33:01.470Z,25.07
2023-09-18T12:35:31.846Z,24.87
2023-09-18T12:38:02.124Z,24.66
2023-09-18T12:40:35.891Z,24.28
2023-09-18T12:43:07.664Z,24.28
2023-09-18T12:45:38.558Z,24.16
2023-09-18T12:48:11.875Z,24.09
2023-09-18T12:50:40.148Z,24.01
2023-09-18T12:53:18.478Z,24.12
2023-09-18T12:55:47.392Z,24.24
2023-09-18T12:58:15.623Z,24.22
2023-09-18T13:00:51.890Z,24.24
2023-09-18T13:03:20.155Z,24.37
2023-09-18T13:05:51.157Z,24.46
2023-09-18T13:08:25.523Z,24.44
2023-09-18T13:10:54.242Z,24.33
2023-09-18T13:13:26.915Z,24.00
2023-09-18T13:16:02.515Z,24.06
2023-09-18T13:18:31.294Z,23.94
2023-09-18T13:21:00.028Z,23.97
2023-09-18T13:23:34.921Z,24.39
2023-09-18T13:26:09.496Z,24.63
2023-09-18T13:28:44.579Z,24.91
2023-09-18T13:31:12.946Z,24.86
2023-09-18T13:33:42.435Z,24.69
2023-09-18T13:36:10.674Z,24.56
2023-09-18T13:38:38.673Z,24.64
2023-09-18T13:41:06.983Z,24.69
2023-09-18T13:43:37.490Z,24.81
2023-09-18T13:46:07.083Z,24.94
2023-09-18T13:48:35.243Z,25.07
2023-09-18T13:51:05.199Z,25.06
2023-09-18T13:53:33.517Z,24.74
2023-09-18T13:56:01.546Z,24.73
2023-09-18T13:58:30.498Z,25.04
2023-09-18T14:00:58.824Z,25.12
2023-09-18T14:03:26.953Z,25.08
2023-09-18T14:05:55.077Z,24.94
2023-09-18T14:08:23.166Z,24.77
2023-09-18T14:10:51.338Z,24.88
2023-09-18T14:13:19.974Z,24.97
2023-09-18T14:15:52.496Z,24.94
2023-09-18T14:18:21.069Z,24.70
2023-09-18T14:20:49.215Z,24.59
2023-09-18T14:23:17.250Z,24.46
2023-09-18T14:25:45.233Z,24.42
2023-09-18T14:28:14.969Z,24.37
2023-09-18T14:30:43.083Z,24.43
2023-09-18T14:33:12.496Z,24.43
2023-09-18T14:35:40.750Z,24.49
2023-09-18T14:38:09.805Z,24.59
2023-09-18T14:40:37.838Z,24.74
2023-09-18T14:43:06.842Z,24.69
2023-09-18T14:45:36.320Z,24.74
2023-09-18T14:48:05.277Z,24.76
2023-09-18T14:50:33.484Z,24.77
2023-09-18T14:53:01.571Z,24.98
2023-09-18T14:55:29.613Z,25.21
2023-09-18T14:57:57.845Z,25.28
2023-09-18T15:00:26.211Z,25.42
2023-09-18T15:02:54.450Z,25.62
2023-09-18T15:05:22.579Z,25.63
2023-09-18T15:07:50.561Z,25.70
2023-09-18T15:10:19.615Z,25.80
2023-09-18T15:12:47.808Z,25.77
2023-09-18T15:15:16.016Z,25.69
2023-09-18T15:17:44.081Z,25.65
2023-09-18T15:20:14.633Z,25.66
2023-09-18T15:22:43.928Z,25.67
2023-09-18T15:25:12.246Z,25.47
2023-09-18T15:27:40.300Z,25.28
2023-09-18T15:30:09.890Z,25.35
2023-09-18T15:32:55.303Z,24.98
2023-09-18T15:35:27.970Z,25.03
2023-09-18T15:37:56.891Z,24.92
2023-09-18T15:40:25.448Z,24.67
2023-09-18T15:42:54.881Z,24.64
2023-09-18T15:45:23.224Z,24.42
2023-09-18T15:47:51.704Z,24.62
2023-09-18T15:50:20.156Z,24.39
2023-09-18T15:52:48.420Z,24.22
2023-09-18T15:55:17.140Z,24.36
2023-09-18T15:57:45.742Z,24.22
2023-09-18T16:00:15.121Z,24.35
2023-09-18T16:02:45.137Z,24.56
2023-09-18T16:05:14.323Z,24.33
2023-09-18T16:07:43.329Z,24.60
2023-09-18T16:10:12.175Z,24.70
2023-09-18T16:12:40.302Z,24.67
2023-09-18T16:15:11.284Z,24.37
2023-09-18T16:17:39.364Z,24.14
2023-09-18T16:20:11.804Z,23.91
2023-09-18T16:22:41.479Z,23.75
2023-09-18T16:25:10.563Z,23.64
2023-09-18T16:27:38.542Z,23.70
2023-09-18T16:30:10.393Z,23.66
2023-09-18T16:32:41.647Z,23.61
2023-09-18T16:35:10.091Z,23.64
2023-09-18T16:37:38.350Z,23.63
2023-09-18T16:40:09.382Z,23.63
2023-09-18T16:42:37.534Z,23.54
2023-09-18T16:45:08.224Z,23.50
2023-09-18T16:47:37.240Z,23.39
2023-09-18T16:50:07.334Z,23.27
2023-09-18T16:52:35.646Z,23.20
2023-09-18T16:55:06.284Z,23.12
2023-09-18T16:57:34.414Z,22.98
2023-09-18T17:00:02.640Z,22.92
2023-09-18T17:02:30.796Z,22.91
2023-09-18T17:04:59.046Z,22.85
2023-09-18T17:07:29.430Z,22.87
2023-09-18T17:09:58.216Z,22.81
2023-09-18T17:12:26.326Z,22.83
2023-09-18T17:14:55.139Z,22.88
2023-09-18T17:17:23.365Z,22.84
2023-09-18T17:19:51.605Z,22.84
2023-09-18T17:22:20.635Z,22.88
2023-09-18T17:24:48.589Z,22.85
2023-09-18T17:27:16.666Z,22.88
2023-09-18T17:29:45.670Z,22.94
2023-09-18T17:32:13.736Z,22.95
2023-09-18T17:34:41.775Z,23.02
2023-09-18T17:37:09.788Z,22.95
2023-09-18T17:39:38.045Z,22.87
2023-09-18T17:42:06.381Z,22.85
2023-09-18T17:44:36.658Z,22.60
2023-09-18T17:47:06.461Z,21.92
2023-09-18T17:49:36.724Z,21.28
2023-09-18T17:52:08.934Z,20.59
2023-09-18T17:54:37.509Z,20.12
2023-09-18T17:57:07.339Z,19.83
2023-09-18T17:59:37.669Z,19.61
2023-09-18T18:02:08.337Z,19.41
2023-09-18T18:04:38.332Z,19.27
2023-09-18T18:07:06.862Z,19.18
2023-09-18T18:09:34.897Z,19.14
2023-09-18T18:12:03.141Z,19.00
2023-09-18T18:14:31.290Z,18.99
2023-09-18T18:17:01.243Z,19.00
2023-09-18T18:19:29.647Z,19.00
2023-09-18T18:21:57.737Z,18.99
2023-09-18T18:24:25.948Z,19.00
2023-09-18T18:26:54.948Z,18.90
2023-09-18T18:29:23.402Z,18.70
2023-09-18T18:31:52.792Z,18.59
2023-09-18T18:34:20.920Z,18.56
2023-09-18T18:36:50.020Z,18.39
2023-09-18T18:39:18.236Z,18.31
2023-09-18T18:41:46.576Z,18.26
2023-09-18T18:44:14.759Z,18.12
2023-09-18T18:46:42.841Z,18.11
2023-09-18T18:49:10.904Z,18.08
2023-09-18T18:51:41.761Z,18.05
2023-09-18T18:54:09.886Z,17.98
2023-09-18T18:56:39.594Z,17.94
2023-09-18T18:59:07.826Z,17.91
2023-09-18T19:01:36.546Z,17.93
2023-09-18T19:04:05.279Z,17.90
2023-09-18T19:06:35.194Z,17.81
2023-09-18T19:09:03.812Z,17.79
2023-09-18T19:11:32.202Z,17.74
2023-09-18T19:14:00.571Z,17.71
2023-09-18T19:16:28.627Z,17.67
2023-09-18T19:18:58.781Z,17.66
2023-09-18T19:21:26.871Z,17.59
2023-09-18T19:23:55.180Z,17.54
2023-09-18T19:26:23.507Z,17.53
2023-09-18T19:28:52.507Z,17.53
2023-09-18T19:31:23.379Z,17.45
2023-09-18T19:33:53.885Z,17.43
2023-09-18T19:36:22.421Z,17.45
2023-09-18T19:38:50.421Z,17.39
2023-09-18T19:41:18.929Z,17.38
2023-09-18T19:43:47.040Z,17.36
2023-09-18T19:46:15.111Z,17.31
2023-09-18T19:48:43.765Z,17.32
2023-09-18T19:51:12.132Z,17.29
2023-09-18T19:53:40.308Z,17.25
2023-09-18T19:56:08.267Z,17.24
2023-09-18T19:58:36.569Z,17.15
2023-09-18T20:01:04.841Z,17.18
2023-09-18T20:03:33.359Z,17.15
2023-09-18T20:06:09.469Z,17.14
2023-09-18T20:08:38.406Z,17.10
2023-09-18T20:11:06.718Z,17.12
2023-09-18T20:13:35.277Z,17.11
2023-09-18T20:16:03.469Z,17.07
2023-09-18T20:18:32.557Z,17.04
2023-09-18T20:21:02.948Z,17.03
2023-09-18T20:23:32.405Z,17.01
2023-09-18T20:26:02.190Z,17.01
2023-09-18T20:28:30.622Z,17.00
2023-09-18T20:30:59.225Z,16.98
2023-09-18T20:33:28.227Z,17.00
2023-09-18T20:36:04.449Z,17.01
2023-09-18T20:38:32.893Z,17.00
2023-09-18T20:41:02.163Z,16.94
2023-09-18T20:43:30.922Z,16.95
2023-09-18T20:46:00.620Z,16.91
2023-09-18T20:48:29.001Z,16.88
2023-09-18T20:50:57.700Z,16.78
2023-09-18T20:53:25.801Z,16.73
2023-09-18T20:55:53.811Z,16.73
2023-09-18T20:58:21.794Z,16.73
2023-09-18T21:00:52.204Z,16.73
2023-09-18T21:03:20.335Z,16.73
2023-09-18T21:05:56.174Z,16.80
2023-09-18T21:08:25.725Z,16.71
2023-09-18T21:10:55.548Z,16.67
2023-09-18T21:13:23.737Z,16.71
2023-09-18T21:15:52.517Z,16.74
2023-09-18T21:18:20.809Z,16.68
2023-09-18T21:20:49.093Z,16.66
2023-09-18T21:23:17.420Z,16.61
2023-09-18T21:25:52.692Z,16.61
2023-09-18T21:28:22.925Z,16.57
2023-09-18T21:30:51.056Z,16.56
2023-09-18T21:33:19.232Z,16.55
2023-09-18T21:35:47.463Z,16.50
2023-09-18T21:38:15.867Z,16.49
2023-09-18T21:40:43.857Z,16.56
2023-09-18T21:43:11.919Z,16.55
2023-09-18T21:45:40.043Z,16.49
2023-09-18T21:48:08.643Z,16.52
2023-09-18T21:50:37.742Z,16.52
2023-09-18T21:53:07.912Z,16.53
2023-09-18T21:55:37.172Z,16.56
2023-09-18T21:58:05.583Z,16.59
2023-09-18T22:00:36.370Z,16.60
2023-09-18T22:03:06.140Z,16.64
2023-09-18T22:05:34.411Z,16.67
2023-09-18T22:08:02.660Z,16.76
2023-09-18T22:10:31.287Z,16.80
2023-09-18T22:13:00.724Z,16.81
2023-09-18T22:15:29.266Z,16.78
2023-09-18T22:17:58.259Z,16.84
2023-09-18T22:20:26.541Z,16.87
2023-09-18T22:22:54.655Z,16.88
2023-09-18T22:25:22.828Z,16.89
2023-09-18T22:27:50.789Z,16.85
2023-09-18T22:30:20.471Z,16.88
2023-09-18T22:32:49.083Z,16.91
2023-09-18T22:35:17.244Z,16.89
2023-09-18T22:37:48.076Z,16.89
2023-09-18T22:40:16.803Z,16.94
2023-09-18T22:44:17.605Z,16.92
2023-09-18T22:48:22.231Z,17.01
2023-09-18T22:52:22.780Z,17.05
2023-09-18T22:54:56.659Z,16.95
2023-09-18T22:57:32.277Z,16.91
2023-09-18T23:00:00.989Z,16.84
2023-09-18T23:02:30.216Z,16.74
2023-09-18T23:05:00.200Z,16.67
2023-09-18T23:07:29.014Z,16.77
2023-09-18T23:09:57.649Z,16.76
2023-09-18T23:12:29.959Z,16.80
2023-09-18T23:14:58.172Z,16.84
2023-09-18T23:17:27.664Z,16.74
2023-09-18T23:19:55.923Z,16.61
2023-09-18T23:22:24.694Z,16.56
2023-09-18T23:24:54.023Z,16.55
2023-09-18T23:27:23.564Z,16.52
2023-09-18T23:29:51.611Z,16.56
2023-09-18T23:32:19.771Z,16.49
2023-09-18T23:34:53.423Z,16.49
2023-09-18T23:37:25.275Z,16.47
2023-09-18T23:39:53.793Z,16.36
2023-09-18T23:42:22.255Z,16.32
2023-09-18T23:44:51.254Z,16.29
2023-09-18T23:47:21.316Z,16.29
2023-09-18T23:49:49.328Z,16.28
2023-09-18T23:52:17.941Z,16.25
2023-09-18T23:54:46.265Z,16.22
2023-09-18T23:57:14.328Z,16.21
2023-09-18T23:59:42.891Z,16.18
